createdAt,value
2018-02-02T00:00:30.314Z,3.30
2018-02-02T00:02:59.006Z,3.90
2018-02-02T00:05:27.714Z,3.87
2018-02-02T00:07:56.438Z,4.10
2018-02-02T00:10:25.146Z,3.67
2018-02-02T00:12:53.912Z,3.60
2018-02-02T00:15:22.622Z,3.55
2018-02-02T00:17:51.323Z,3.35
2018-02-02T00:20:20.034Z,4.20
2018-02-02T00:22:49.493Z,2.90
2018-02-02T00:25:18.247Z,3.10
2018-02-02T00:27:47.722Z,3.60
2018-02-02T00:30:16.466Z,3.70
2018-02-02T00:32:45.189Z,3.80
2018-02-02T00:35:14.850Z,3.67
2018-02-02T00:37:44.334Z,2.75
2018-02-02T00:40:13.038Z,3.55
2018-02-02T00:42:42.597Z,3.47
2018-02-02T00:45:11.302Z,3.45
2018-02-02T00:47:40.011Z,2.70
2018-02-02T00:50:08.738Z,3.12
2018-02-02T00:52:37.436Z,3.30
2018-02-02T00:55:06.180Z,3.28
2018-02-02T00:57:34.922Z,3.35
2018-02-02T01:00:03.358Z,3.42
2018-02-02T01:02:32.822Z,3.10
2018-02-02T01:05:01.511Z,3.30
2018-02-02T01:07:30.226Z,3.30
2018-02-02T01:09:58.918Z,4.07
2018-02-02T01:12:28.412Z,3.20
2018-02-02T01:14:57.102Z,2.95
2018-02-02T01:17:25.810Z,2.80
2018-02-02T01:19:54.606Z,4.07
2018-02-02T01:22:23.413Z,3.72
2018-02-02T01:24:52.226Z,3.83
2018-02-02T01:27:20.942Z,2.90
2018-02-02T01:29:49.630Z,2.60
2018-02-02T01:32:18.374Z,3.25
2018-02-02T01:34:47.082Z,2.90
2018-02-02T01:37:15.798Z,3.10
2018-02-02T01:39:44.517Z,2.65
2018-02-02T01:42:13.209Z,3.05
2018-02-02T01:44:42.064Z,2.80
2018-02-02T01:47:10.782Z,3.30
2018-02-02T01:49:39.502Z,3.00
2018-02-02T01:52:08.211Z,3.22
2018-02-02T01:54:36.922Z,2.80
2018-02-02T01:57:05.616Z,2.62
2018-02-02T01:59:35.235Z,2.60
2018-02-02T02:02:04.802Z,3.20
2018-02-02T02:04:33.645Z,2.53
2018-02-02T02:07:02.362Z,3.50
2018-02-02T02:09:31.086Z,2.97
2018-02-02T02:11:59.797Z,2.92
2018-02-02T02:14:29.299Z,2.85
2018-02-02T02:16:58.754Z,2.28
2018-02-02T02:19:27.484Z,2.42
2018-02-02T02:21:56.190Z,2.65
2018-02-02T02:24:25.662Z,2.70
2018-02-02T02:26:54.347Z,2.58
2018-02-02T02:29:23.082Z,2.70
2018-02-02T02:31:51.988Z,2.90
2018-02-02T02:34:20.690Z,3.10
2018-02-02T02:36:49.423Z,3.08
2018-02-02T02:39:18.134Z,3.12
2018-02-02T02:41:46.902Z,2.72
2018-02-02T02:44:16.392Z,3.60
2018-02-02T02:46:45.202Z,3.22
2018-02-02T02:49:14.682Z,2.72
2018-02-02T02:51:43.388Z,3.08
2018-02-02T02:54:12.103Z,3.28
2018-02-02T02:56:40.806Z,3.15
2018-02-02T02:59:09.602Z,4.12
2018-02-02T03:01:38.345Z,4.10
2018-02-02T03:04:07.551Z,4.35
2018-02-02T03:06:37.026Z,4.37
2018-02-02T03:09:05.070Z,4.00
2018-02-02T03:11:33.777Z,4.05
2018-02-02T03:14:02.470Z,3.90
2018-02-02T03:16:31.242Z,4.12
2018-02-02T03:18:59.932Z,3.55
2018-02-02T03:21:28.642Z,3.33
2018-02-02T03:23:57.335Z,3.15
2018-02-02T03:26:26.088Z,3.60
2018-02-02T03:28:54.774Z,3.28
2018-02-02T03:31:23.572Z,3.17
2018-02-02T03:33:52.279Z,3.35
2018-02-02T03:36:21.015Z,3.37
2018-02-02T03:38:50.471Z,3.45
2018-02-02T03:41:19.347Z,3.80
2018-02-02T03:43:48.042Z,4.00
2018-02-02T03:46:16.736Z,3.70
2018-02-02T03:48:45.442Z,4.03
2018-02-02T03:51:14.137Z,4.57
2018-02-02T03:53:42.850Z,4.12
2018-02-02T03:56:11.555Z,3.50
2018-02-02T03:58:40.266Z,4.15
2018-02-02T04:01:08.954Z,3.70
2018-02-02T04:03:37.668Z,3.90
2018-02-02T04:06:06.435Z,4.53
2018-02-02T04:08:35.138Z,4.12
2018-02-02T04:11:03.853Z,4.70
2018-02-02T04:13:33.339Z,4.53
2018-02-02T04:16:02.033Z,4.68
2018-02-02T04:18:30.753Z,4.40
2018-02-02T04:20:58.798Z,5.03
2018-02-02T04:23:27.902Z,5.22
2018-02-02T04:25:57.493Z,5.05
2018-02-02T04:28:25.593Z,5.07
2018-02-02T04:30:54.467Z,5.00
2018-02-02T04:33:23.921Z,4.65
2018-02-02T04:35:56.951Z,5.65
2018-02-02T04:38:25.882Z,4.22
2018-02-02T04:40:54.582Z,4.55
2018-02-02T04:43:23.285Z,4.70
2018-02-02T04:45:51.990Z,4.40
2018-02-02T04:48:20.677Z,4.22
2018-02-02T04:50:49.386Z,4.22
2018-02-02T04:53:18.194Z,4.50
2018-02-02T04:55:47.118Z,4.35
2018-02-02T04:58:15.155Z,3.65
2018-02-02T05:00:44.607Z,5.05
2018-02-02T05:03:13.350Z,3.92
2018-02-02T05:05:42.815Z,4.15
2018-02-02T05:08:11.578Z,3.95
2018-02-02T05:10:40.282Z,4.03
2018-02-02T05:13:09.098Z,4.30
2018-02-02T05:15:37.782Z,4.53
2018-02-02T05:18:06.418Z,4.07
2018-02-02T05:20:35.146Z,4.32
2018-02-02T05:23:03.870Z,3.55
2018-02-02T05:25:33.330Z,3.40
2018-02-02T05:28:02.034Z,4.45
2018-02-02T05:30:30.753Z,4.18
2018-02-02T05:33:00.230Z,3.90
2018-02-02T05:35:28.934Z,4.10
2018-02-02T05:37:57.623Z,5.57
2018-02-02T05:40:26.330Z,5.10
2018-02-02T05:42:55.792Z,5.32
2018-02-02T05:45:24.511Z,5.05
2018-02-02T05:47:54.468Z,4.18
2018-02-02T05:50:23.374Z,4.45
2018-02-02T05:52:52.097Z,4.72
2018-02-02T05:55:20.982Z,4.20
2018-02-02T05:57:49.665Z,3.15
2018-02-02T06:00:18.358Z,3.67
2018-02-02T06:02:47.070Z,4.25
2018-02-02T06:05:16.543Z,3.62
2018-02-02T06:07:45.269Z,3.58
2018-02-02T06:10:14.718Z,3.15
2018-02-02T06:12:43.426Z,2.62
2018-02-02T06:15:13.638Z,2.90
2018-02-02T06:17:42.357Z,3.30
2018-02-02T06:20:11.810Z,3.62
2018-02-02T06:22:40.526Z,3.30
2018-02-02T06:25:09.240Z,3.75
2018-02-02T06:27:37.979Z,3.33
2018-02-02T06:30:06.672Z,3.50
2018-02-02T06:32:35.434Z,3.90
2018-02-02T06:35:04.143Z,3.70
2018-02-02T06:37:32.869Z,3.70
2018-02-02T06:40:01.594Z,3.80
2018-02-02T06:42:30.282Z,4.78
2018-02-02T06:44:58.994Z,4.03
2018-02-02T06:47:28.826Z,4.25
2018-02-02T06:49:57.529Z,3.80
2018-02-02T06:52:26.295Z,4.10
2018-02-02T06:54:55.474Z,3.70
2018-02-02T06:57:24.164Z,3.50
2018-02-02T06:59:54.037Z,3.10
2018-02-02T07:02:22.730Z,3.28
2018-02-02T07:04:52.214Z,3.65
2018-02-02T07:07:20.902Z,4.00
2018-02-02T07:09:49.610Z,4.18
2018-02-02T07:12:19.070Z,3.97
2018-02-02T07:14:47.756Z,5.05
2018-02-02T07:17:16.510Z,4.85
2018-02-02T07:19:44.550Z,4.53
2018-02-02T07:22:14.030Z,4.25
2018-02-02T07:24:42.747Z,3.80
2018-02-02T07:27:11.455Z,3.60
2018-02-02T07:29:40.915Z,3.90
2018-02-02T07:32:09.703Z,4.78
2018-02-02T07:34:38.211Z,3.42
2018-02-02T07:37:07.346Z,3.58
2018-02-02T07:39:36.055Z,3.00
2018-02-02T07:42:04.762Z,3.58
2018-02-02T07:44:33.141Z,3.25
2018-02-02T07:47:01.850Z,3.55
2018-02-02T07:49:30.565Z,3.42
2018-02-02T07:52:00.040Z,3.08
2018-02-02T07:54:28.996Z,3.55
2018-02-02T07:56:57.695Z,3.67
2018-02-02T07:59:26.467Z,3.17
2018-02-02T08:01:55.150Z,3.37
2018-02-02T08:04:23.873Z,3.80
2018-02-02T08:06:52.568Z,3.30
2018-02-02T08:09:21.266Z,3.53
2018-02-02T08:11:49.946Z,2.97
2018-02-02T08:14:18.762Z,3.10
2018-02-02T08:16:48.255Z,3.50
2018-02-02T08:19:16.955Z,2.70
2018-02-02T08:21:46.430Z,2.83
2018-02-02T08:24:15.142Z,2.95
2018-02-02T08:26:44.614Z,3.87
2018-02-02T08:29:13.334Z,3.65
2018-02-02T08:31:42.786Z,2.85
2018-02-02T08:34:10.949Z,3.20
2018-02-02T08:36:39.666Z,3.05
2018-02-02T08:39:08.366Z,3.10
2018-02-02T08:41:37.089Z,4.45
2018-02-02T08:44:06.590Z,3.85
2018-02-02T08:46:35.671Z,3.45
2018-02-02T08:49:04.379Z,2.90
2018-02-02T08:51:33.854Z,3.40
2018-02-02T08:54:02.541Z,3.10
2018-02-02T08:56:31.310Z,2.92
2018-02-02T08:59:00.931Z,3.50
2018-02-02T09:01:35.255Z,2.72
2018-02-02T09:04:03.957Z,3.42
2018-02-02T09:06:32.763Z,3.47
2018-02-02T09:09:01.858Z,3.08
2018-02-02T09:11:31.328Z,3.30
2018-02-02T09:14:00.021Z,3.20
2018-02-02T09:16:28.398Z,3.60
2018-02-02T09:18:57.098Z,3.78
2018-02-02T09:21:25.190Z,3.87
2018-02-02T09:23:54.751Z,3.42
2018-02-02T09:26:23.459Z,3.53
2018-02-02T09:28:52.170Z,3.60
2018-02-02T09:31:21.658Z,3.55
2018-02-02T09:33:50.367Z,2.83
2018-02-02T09:36:19.877Z,3.22
2018-02-02T09:38:49.343Z,3.25
2018-02-02T09:41:18.170Z,3.22
2018-02-02T09:43:47.662Z,3.80
2018-02-02T09:46:16.346Z,3.10
2018-02-02T09:48:45.055Z,2.85
2018-02-02T09:51:14.544Z,3.12
2018-02-02T09:53:43.234Z,2.58
2018-02-02T09:56:11.946Z,3.60
2018-02-02T09:58:40.644Z,2.20
2018-02-02T10:01:09.367Z,2.92
2018-02-02T10:03:38.196Z,2.97
2018-02-02T10:06:07.685Z,3.40
2018-02-02T10:08:36.378Z,3.35
2018-02-02T10:11:05.881Z,3.00
2018-02-02T10:13:34.598Z,3.40
2018-02-02T10:16:04.058Z,2.92
2018-02-02T10:18:32.782Z,4.32
2018-02-02T10:21:02.242Z,2.95
2018-02-02T10:23:31.142Z,3.75
2018-02-02T10:25:59.834Z,3.90
2018-02-02T10:28:28.529Z,3.87
2018-02-02T10:30:57.367Z,3.55
2018-02-02T10:33:26.081Z,3.05
2018-02-02T10:35:54.838Z,3.60
2018-02-02T10:38:23.286Z,3.60
2018-02-02T10:40:51.983Z,3.75
2018-02-02T10:43:20.692Z,3.50
2018-02-02T10:45:49.403Z,3.62
2018-02-02T10:48:18.122Z,3.28
2018-02-02T10:50:46.835Z,3.60
2018-02-02T10:53:16.334Z,3.90
2018-02-02T10:55:44.834Z,3.50
2018-02-02T10:58:15.248Z,3.25
2018-02-02T11:00:49.485Z,3.55
2018-02-02T11:03:20.275Z,3.15
2018-02-02T11:05:48.990Z,3.58
2018-02-02T11:08:17.599Z,3.63
2018-02-02T11:10:47.145Z,3.45
2018-02-02T11:13:15.748Z,3.70
2018-02-02T11:15:44.491Z,3.40
2018-02-02T11:18:13.232Z,3.20
2018-02-02T11:20:41.956Z,3.10
2018-02-02T11:23:11.410Z,3.40
2018-02-02T11:25:40.510Z,3.05
2018-02-02T11:28:09.364Z,3.20
2018-02-02T11:30:37.947Z,3.20
2018-02-02T11:33:06.386Z,3.30
2018-02-02T11:35:35.579Z,3.20
2018-02-02T11:38:03.998Z,3.10
2018-02-02T11:40:32.838Z,2.57
2018-02-02T11:43:02.035Z,2.80
2018-02-02T11:45:30.465Z,2.20
2018-02-02T11:47:59.677Z,2.90
2018-02-02T11:50:28.094Z,2.93
2018-02-02T11:52:56.546Z,2.93
2018-02-02T11:55:24.969Z,2.20
2018-02-02T11:57:54.202Z,2.80
2018-02-02T12:00:22.446Z,2.50
2018-02-02T12:02:51.675Z,2.17
2018-02-02T12:05:19.919Z,2.70
2018-02-02T12:07:48.949Z,2.83
2018-02-02T12:10:17.430Z,2.80
2018-02-02T12:12:45.867Z,2.50
2018-02-02T12:15:14.274Z,3.07
2018-02-02T12:17:42.521Z,2.87
2018-02-02T12:20:10.758Z,2.07
2018-02-02T12:22:43.992Z,2.73
2018-02-02T12:25:31.805Z,2.17
2018-02-02T12:28:00.512Z,2.30
2018-02-02T12:30:34.410Z,2.47
2018-02-02T12:33:14.543Z,3.10
2018-02-02T12:35:43.319Z,2.27
2018-02-02T12:38:11.563Z,2.63
2018-02-02T12:40:40.566Z,2.33
2018-02-02T12:43:09.799Z,2.33
2018-02-02T12:45:38.422Z,2.27
2018-02-02T12:48:11.913Z,2.13
2018-02-02T12:50:51.631Z,2.83
2018-02-02T12:53:20.254Z,2.80
2018-02-02T12:55:48.670Z,2.07
2018-02-02T12:58:17.168Z,2.93
2018-02-02T13:00:45.622Z,2.70
2018-02-02T13:03:14.806Z,2.67
2018-02-02T13:05:43.246Z,2.33
2018-02-02T13:08:11.662Z,2.60
2018-02-02T13:10:41.669Z,2.30
2018-02-02T13:13:10.232Z,2.20
2018-02-02T13:15:38.657Z,2.70
2018-02-02T13:18:07.073Z,2.47
2018-02-02T13:20:35.518Z,2.60
2018-02-02T13:23:03.953Z,2.20
2018-02-02T13:25:32.370Z,2.33
2018-02-02T13:28:02.340Z,2.20
2018-02-02T13:30:30.799Z,2.40
2018-02-02T13:33:00.019Z,4.80
2018-02-02T13:35:28.444Z,3.63
2018-02-02T13:37:56.993Z,7.00
2018-02-02T13:40:25.226Z,5.10
2018-02-02T13:42:54.447Z,3.67
2018-02-02T13:45:22.865Z,2.70
2018-02-02T13:47:51.318Z,3.57
2018-02-02T13:50:19.746Z,2.60
2018-02-02T13:52:48.162Z,2.37
2018-02-02T13:55:17.368Z,2.17
2018-02-02T13:57:45.830Z,3.10
2018-02-02T14:00:14.265Z,3.07
2018-02-02T14:02:42.702Z,2.80
2018-02-02T14:05:12.036Z,2.50
2018-02-02T14:07:40.470Z,2.70
2018-02-02T14:10:10.390Z,2.90
2018-02-02T14:12:38.818Z,2.80
2018-02-02T14:15:08.016Z,2.80
2018-02-02T14:17:36.427Z,3.00
2018-02-02T14:20:04.842Z,2.53
2018-02-02T14:22:34.129Z,2.50
2018-02-02T14:25:03.067Z,2.60
2018-02-02T14:27:32.645Z,2.80
2018-02-02T14:30:01.851Z,2.77
2018-02-02T14:32:31.030Z,2.70
2018-02-02T14:34:59.470Z,2.03
2018-02-02T14:37:27.900Z,2.70
2018-02-02T14:39:57.124Z,2.90
2018-02-02T14:42:26.503Z,2.80
2018-02-02T14:44:55.695Z,2.70
2018-02-02T14:47:24.194Z,2.83
2018-02-02T14:49:53.391Z,2.83
2018-02-02T14:52:22.598Z,3.00
2018-02-02T14:54:51.834Z,3.57
2018-02-02T14:57:20.269Z,2.60
2018-02-02T14:59:49.502Z,2.40
2018-02-02T15:02:17.934Z,3.40
2018-02-02T15:04:46.344Z,2.53
2018-02-02T15:07:14.863Z,3.60
2018-02-02T15:09:43.283Z,2.50
2018-02-02T15:12:11.802Z,2.20
2018-02-02T15:14:40.258Z,2.60
2018-02-02T15:17:09.479Z,3.00
2018-02-02T15:19:37.919Z,2.60
2018-02-02T15:22:06.158Z,2.13
2018-02-02T15:24:35.659Z,2.65
2018-02-02T15:27:04.464Z,1.90
2018-02-02T15:29:32.982Z,2.20
2018-02-02T15:32:01.426Z,2.13
2018-02-02T15:34:30.903Z,2.22
2018-02-02T15:36:59.713Z,1.95
2018-02-02T15:39:29.216Z,2.30
2018-02-02T15:41:58.590Z,2.07
2018-02-02T15:44:27.432Z,2.42
2018-02-02T15:46:56.135Z,2.40
2018-02-02T15:49:24.578Z,2.53
2018-02-02T15:51:53.788Z,2.97
2018-02-02T15:54:22.223Z,4.60
2018-02-02T15:56:51.096Z,3.17
2018-02-02T15:59:19.610Z,2.90
2018-02-02T16:01:48.156Z,4.13
2018-02-02T16:04:16.584Z,3.53
2018-02-02T16:06:45.288Z,3.10
2018-02-02T16:09:13.725Z,3.00
2018-02-02T16:11:42.951Z,3.90
2018-02-02T16:14:11.809Z,4.37
2018-02-02T16:16:41.046Z,3.93
2018-02-02T16:19:09.913Z,3.40
2018-02-02T16:21:38.745Z,3.80
2018-02-02T16:24:07.785Z,4.03
2018-02-02T16:26:36.994Z,4.20
2018-02-02T16:29:05.817Z,3.60
2018-02-02T16:31:34.642Z,4.17
2018-02-02T16:34:03.075Z,3.33
2018-02-02T16:36:31.894Z,3.97
2018-02-02T16:39:01.203Z,3.50
2018-02-02T16:41:29.637Z,3.43
2018-02-02T16:43:58.883Z,4.07
2018-02-02T16:46:27.557Z,3.07
2018-02-02T16:48:56.010Z,3.23
2018-02-02T16:51:24.629Z,3.70
2018-02-02T16:53:53.082Z,4.07
2018-02-02T16:56:21.955Z,3.30
2018-02-02T16:59:07.675Z,3.23
2018-02-02T17:01:36.495Z,3.67
2018-02-02T17:04:04.758Z,3.40
2018-02-02T17:06:33.050Z,5.03
2018-02-02T17:09:02.089Z,3.40
2018-02-02T17:11:31.111Z,4.37
2018-02-02T17:13:59.748Z,3.70
2018-02-02T17:16:28.205Z,3.37
2018-02-02T17:18:56.642Z,4.27
2018-02-02T17:21:25.976Z,4.40
2018-02-02T17:23:54.411Z,4.30
2018-02-02T17:26:22.853Z,3.87
2018-02-02T17:28:52.321Z,4.20
2018-02-02T17:31:21.050Z,3.85
2018-02-02T17:33:49.464Z,3.80
2018-02-02T17:36:18.310Z,5.35
2018-02-02T17:38:47.441Z,4.40
2018-02-02T17:41:15.927Z,4.57
2018-02-02T17:43:44.671Z,4.80
2018-02-02T17:46:13.598Z,3.85
2018-02-02T17:48:42.018Z,4.30
2018-02-02T17:51:11.227Z,4.17
2018-02-02T17:53:39.949Z,4.97
2018-02-02T17:56:09.494Z,4.40
2018-02-02T17:58:38.342Z,3.60
2018-02-02T18:01:09.795Z,3.70
2018-02-02T18:03:39.090Z,3.25
2018-02-02T18:06:08.582Z,3.97
2018-02-02T18:08:37.113Z,3.67
2018-02-02T18:11:05.887Z,3.37
2018-02-02T18:13:34.614Z,3.92
2018-02-02T18:16:03.812Z,3.60
2018-02-02T18:18:32.532Z,3.37
2018-02-02T18:21:01.001Z,3.57
2018-02-02T18:23:29.459Z,3.50
2018-02-02T18:25:57.904Z,3.70
2018-02-02T18:28:26.330Z,3.83
2018-02-02T18:30:55.080Z,3.47
2018-02-02T18:33:23.778Z,3.40
2018-02-02T18:35:52.210Z,3.57
2018-02-02T18:38:20.677Z,3.17
2018-02-02T18:40:49.505Z,4.25
2018-02-02T18:43:17.952Z,3.37
2018-02-02T18:45:46.669Z,3.40
2018-02-02T18:48:15.378Z,4.03
2018-02-02T18:50:44.157Z,3.70
2018-02-02T18:53:13.282Z,3.40
2018-02-02T18:55:41.978Z,4.40
2018-02-02T18:58:10.718Z,5.82
2018-02-02T19:00:39.146Z,5.30
2018-02-02T19:03:08.398Z,3.77
2018-02-02T19:05:37.206Z,5.47
2018-02-02T19:08:05.659Z,4.27
2018-02-02T19:10:34.350Z,4.30
2018-02-02T19:13:03.059Z,4.75
2018-02-02T19:15:32.556Z,3.97
2018-02-02T19:18:02.051Z,4.00
2018-02-02T19:20:30.818Z,4.85
2018-02-02T19:22:59.609Z,3.58
2018-02-02T19:25:28.366Z,4.60
2018-02-02T19:27:57.121Z,4.30
2018-02-02T19:30:26.641Z,5.85
2018-02-02T19:32:55.080Z,6.27
2018-02-02T19:35:23.922Z,5.35
2018-02-02T19:37:52.577Z,5.70
2018-02-02T19:40:21.025Z,5.83
2018-02-02T19:42:49.531Z,4.40
2018-02-02T19:45:18.065Z,4.12
2018-02-02T19:47:46.323Z,4.00
2018-02-02T19:50:14.801Z,4.23
2018-02-02T19:52:43.048Z,4.90
2018-02-02T19:55:12.091Z,4.50
2018-02-02T19:57:40.814Z,3.93
2018-02-02T20:00:09.519Z,4.40
2018-02-02T20:02:38.363Z,4.10
2018-02-02T20:05:07.098Z,5.40
2018-02-02T20:07:36.592Z,4.68
2018-02-02T20:10:05.782Z,4.07
2018-02-02T20:12:34.570Z,5.00
2018-02-02T20:15:03.408Z,5.62
2018-02-02T20:17:32.246Z,6.70
2018-02-02T20:20:00.951Z,6.05
2018-02-02T20:22:30.159Z,6.80
2018-02-02T20:24:59.085Z,5.03
2018-02-02T20:27:27.523Z,5.07
2018-02-02T20:29:56.740Z,4.70
2018-02-02T20:32:25.484Z,5.20
2018-02-02T20:34:54.338Z,5.35
2018-02-02T20:37:22.794Z,5.53
2018-02-02T20:39:51.514Z,5.37
2018-02-02T20:42:20.290Z,5.00
2018-02-02T20:44:49.303Z,5.40
2018-02-02T20:47:19.113Z,5.37
2018-02-02T20:49:48.417Z,5.32
2018-02-02T20:52:17.206Z,5.55
2018-02-02T20:54:46.334Z,6.30
2018-02-02T20:57:15.034Z,5.35
2018-02-02T20:59:43.726Z,5.15
2018-02-02T21:02:12.431Z,4.95
2018-02-02T21:04:41.364Z,5.07
2018-02-02T21:07:10.910Z,6.45
2018-02-02T21:09:39.795Z,7.07
2018-02-02T21:12:08.496Z,6.22
2018-02-02T21:14:37.038Z,6.90
2018-02-02T21:17:05.762Z,6.00
2018-02-02T21:19:34.502Z,5.55
2018-02-02T21:22:03.983Z,6.15
2018-02-02T21:24:33.285Z,5.83
2018-02-02T21:27:02.483Z,6.17
2018-02-02T21:29:31.193Z,5.97
2018-02-02T21:31:59.638Z,5.73
2018-02-02T21:34:28.826Z,4.40
2018-02-02T21:36:57.246Z,5.37
2018-02-02T21:39:25.671Z,6.13
2018-02-02T21:41:53.809Z,6.40
2018-02-02T21:44:22.243Z,5.77
2018-02-02T21:46:50.690Z,5.57
2018-02-02T21:49:19.522Z,5.67
2018-02-02T21:51:47.959Z,5.70
2018-02-02T21:54:16.403Z,5.70
2018-02-02T21:56:45.733Z,5.77
2018-02-02T21:59:13.517Z,4.77
2018-02-02T22:01:42.323Z,5.40
2018-02-02T22:04:10.857Z,5.17
2018-02-02T22:06:39.602Z,6.10
2018-02-02T22:09:08.062Z,5.30
2018-02-02T22:11:36.755Z,5.25
2018-02-02T22:14:06.190Z,4.78
2018-02-02T22:16:34.905Z,4.75
2018-02-02T22:19:03.754Z,5.80
2018-02-02T22:21:32.528Z,4.65
2018-02-02T22:24:02.195Z,5.45
2018-02-02T22:26:30.918Z,5.05
2018-02-02T22:29:00.191Z,6.22
2018-02-02T22:31:28.923Z,4.85
2018-02-02T22:33:57.643Z,5.65
2018-02-02T22:36:26.343Z,6.00
2018-02-02T22:38:55.031Z,6.47
2018-02-02T22:41:23.807Z,5.05
2018-02-02T22:43:52.320Z,5.25
2018-02-02T22:46:21.047Z,4.80
2018-02-02T22:48:49.915Z,4.90
2018-02-02T22:51:19.454Z,5.25
2018-02-02T22:53:48.154Z,5.45
2018-02-02T22:56:16.863Z,5.40
2018-02-02T22:58:45.590Z,5.97
2018-02-02T23:01:15.103Z,7.00
2018-02-02T23:03:43.990Z,7.40
2018-02-02T23:06:13.457Z,6.93
2018-02-02T23:08:42.202Z,8.23
2018-02-02T23:11:10.930Z,6.82
2018-02-02T23:13:39.446Z,7.15
2018-02-02T23:16:08.926Z,6.53
2018-02-02T23:18:37.649Z,6.15
2018-02-02T23:21:06.349Z,6.18
2018-02-02T23:23:35.063Z,5.85
2018-02-02T23:26:04.241Z,6.28
2018-02-02T23:28:32.974Z,6.05
2018-02-02T23:31:01.671Z,6.82
2018-02-02T23:33:30.484Z,6.22
2018-02-02T23:35:59.961Z,6.55
2018-02-02T23:38:28.669Z,5.62
2018-02-02T23:40:58.125Z,5.22
2018-02-02T23:43:26.871Z,6.00
2018-02-02T23:45:56.325Z,5.40
2018-02-02T23:48:24.496Z,6.53
2018-02-02T23:50:53.213Z,6.05
2018-02-02T23:53:21.910Z,5.65
2018-02-02T23:55:50.616Z,6.85
2018-02-02T23:58:20.100Z,5.87
